Time;durP1;ratioP1;P1;durP2;ratioP2;P2;SDS_P1;SDS_P2;PMS_P1;PMS_P2;Temp;Humidity;BMP_temperature;BMP_pressure;BME280_temperature;BME280_humidity;BME280_pressure;Samples;Min_cycle;Max_cycle;Signal;HPM_P1;HPM_P2
2024/02/13 00:02:01;;;;;;;34.47;31.88;;;;;;;4.19;100.00;100081.06;4943740;29;20062;-74
2024/02/13 00:04:33;;;;;;;30.40;28.00;;;;;;;4.17;100.00;100083.84;4937271;29;20055;-75
2024/02/13 00:07:00;;;;;;;32.58;29.85;;;;;;;3.96;100.00;100081.91;4951091;28;20061;-75
2024/02/13 00:09:27;;;;;;;33.50;30.90;;;;;;;4.11;100.00;100081.94;4943428;28;20162;-75
2024/02/13 00:11:54;;;;;;;29.60;27.20;;;;;;;4.01;100.00;100071.69;4947077;28;20088;-76
2024/02/13 00:14:21;;;;;;;32.17;29.67;;;;;;;3.97;100.00;100082.75;4940215;29;20126;-75
2024/02/13 00:16:49;;;;;;;31.30;28.73;;;;;;;3.86;100.00;100079.56;4951359;29;20051;-75
2024/02/13 00:19:27;;;;;;;29.02;26.77;;;;;;;3.97;100.00;100083.56;4950246;28;20051;-75
2024/02/13 00:21:55;;;;;;;30.42;28.02;;;;;;;3.88;100.00;100084.63;4950954;29;20081;-75
2024/02/13 00:24:23;;;;;;;29.27;27.00;;;;;;;3.89;100.00;100094.16;4951281;29;20751;-74
2024/02/13 00:26:51;;;;;;;33.40;30.98;;;;;;;4.01;100.00;100092.72;4952636;28;20089;-74
2024/02/13 00:29:18;;;;;;;28.05;25.85;;;;;;;3.85;100.00;100090.25;4948030;29;20126;-75
2024/02/13 00:31:47;;;;;;;30.00;27.63;;;;;;;3.85;100.00;100101.56;4947279;29;20058;-75
2024/02/13 00:34:16;;;;;;;32.28;29.77;;;;;;;3.93;100.00;100086.72;4951098;29;21021;-76
2024/02/13 00:36:51;;;;;;;35.55;32.83;;;;;;;3.98;100.00;100095.72;4945251;28;20050;-75
2024/02/13 00:39:19;;;;;;;30.70;28.30;;;;;;;3.94;100.00;100091.00;4942056;28;20545;-75
2024/02/13 00:41:46;;;;;;;30.55;27.95;;;;;;;4.14;100.00;100078.97;4952688;28;20070;-75
2024/02/13 00:44:13;;;;;;;36.20;33.35;;;;;;;4.44;100.00;100098.22;4936268;29;20059;-74
2024/02/13 00:46:41;;;;;;;32.45;29.83;;;;;;;4.72;100.00;100085.25;4942172;29;20079;-74
2024/02/13 00:49:23;;;;;;;35.15;32.15;;;;;;;4.78;100.00;100081.06;4952851;29;20077;-75
2024/02/13 00:52:01;;;;;;;33.85;30.63;;;;;;;5.13;100.00;100074.19;4952269;28;20714;-75
2024/02/13 00:54:30;;;;;;;38.17;35.28;;;;;;;4.69;100.00;100080.34;4951460;28;20051;-75
2024/02/13 00:56:56;;;;;;;56.58;52.78;;;;;;;5.09;100.00;100072.94;4950703;28;20043;-75
2024/02/13 00:59:25;;;;;;;50.28;46.90;;;;;;;5.03;100.00;100087.66;4950175;28;20053;-75
2024/02/13 01:01:52;;;;;;;91.78;85.78;;;;;;;5.19;100.00;100085.78;4952210;28;20058;-75
2024/02/13 01:04:19;;;;;;;94.10;87.30;;;;;;;5.15;100.00;100082.72;4951811;28;20498;-75
2024/02/13 01:06:50;;;;;;;77.28;72.30;;;;;;;4.95;100.00;100092.19;4952439;28;20061;-75
2024/02/13 01:09:18;;;;;;;76.43;71.43;;;;;;;5.20;100.00;100082.16;4947579;28;20090;-75
2024/02/13 01:11:46;;;;;;;72.45;67.75;;;;;;;4.93;100.00;100096.81;4938925;28;20055;-75
2024/02/13 01:14:14;;;;;;;108.95;102.43;;;;;;;4.57;100.00;100090.53;4938164;28;20056;-74
2024/02/13 01:16:48;;;;;;;97.65;91.57;;;;;;;4.81;100.00;100099.09;4949436;28;20055;-74
2024/02/13 01:19:20;;;;;;;93.22;87.43;;;;;;;4.79;100.00;100087.97;4949456;28;20055;-74
2024/02/13 01:21:49;;;;;;;82.95;77.65;;;;;;;4.90;100.00;100090.13;4952008;29;20051;-75
2024/02/13 01:24:16;;;;;;;73.53;68.50;;;;;;;5.33;100.00;100098.09;4932414;28;20056;-75
2024/02/13 01:26:44;;;;;;;67.72;63.13;;;;;;;5.42;100.00;100098.81;4936383;29;20086;-76
2024/02/13 01:29:27;;;;;;;84.05;78.10;;;;;;;5.49;100.00;100097.03;4951636;28;20062;-77
2024/02/13 01:31:59;;;;;;;43.92;40.53;;;;;;;6.31;100.00;100096.53;4950481;28;20410;-75
2024/02/13 01:34:26;;;;;;;;;;;;;;;6.83;100.00;100097.81;4938065;29;20039;-75
2024/02/13 01:36:53;;;;;;;99.07;92.20;;;;;;;7.74;100.00;100099.28;4951141;28;19980;-75
2024/02/13 01:39:26;;;;;;;125.95;117.75;;;;;;;8.31;100.00;100095.19;4948553;28;20055;-75
2024/02/13 01:41:53;;;;;;;127.95;119.65;;;;;;;7.99;100.00;100105.63;4951046;29;20138;-75
2024/02/13 01:44:20;;;;;;;110.47;103.18;;;;;;;8.21;100.00;100090.34;4950055;28;20051;-76
2024/02/13 01:46:54;;;;;;;113.38;106.35;;;;;;;8.08;100.00;100089.53;4941843;29;20059;-76
2024/02/13 01:49:23;;;;;;;138.73;129.68;;;;;;;8.33;100.00;100084.44;4950822;28;20051;-76
2024/02/13 01:51:51;;;;;;;125.97;117.88;;;;;;;8.68;100.00;100077.03;4944310;29;20051;-76
2024/02/13 01:54:19;;;;;;;116.32;109.13;;;;;;;8.90;100.00;100080.22;4949938;29;20061;-75
2024/02/13 01:56:49;;;;;;;104.70;98.30;;;;;;;8.36;100.00;100084.81;4949094;29;20051;-75
2024/02/13 01:59:17;;;;;;;119.10;111.60;;;;;;;8.44;100.00;100076.72;4950491;29;20047;-74
2024/02/13 02:01:44;;;;;;;97.55;91.72;;;;;;;9.10;100.00;100072.97;4938127;29;20054;-74
2024/02/13 02:04:12;;;;;;;103.10;96.97;;;;;;;9.51;100.00;100073.56;4937289;28;20055;-75
2024/02/13 02:06:42;;;;;;;51.03;47.72;;;;;;;9.38;100.00;100079.78;4947102;29;20048;-75
2024/02/13 02:09:10;;;;;;;49.70;46.30;;;;;;;9.78;100.00;100072.34;4940539;29;20055;-75
2024/02/13 02:11:37;;;;;;;46.55;43.35;;;;;;;9.17;100.00;100072.97;4945676;28;20051;-75
2024/02/13 02:14:05;;;;;;;53.83;50.10;;;;;;;9.21;100.00;100081.28;4944935;29;20137;-75
2024/02/13 02:16:32;;;;;;;51.55;48.22;;;;;;;9.37;100.00;100073.63;4949801;29;20083;-75
2024/02/13 02:18:59;;;;;;;41.85;39.15;;;;;;;9.14;100.00;100068.09;4935944;28;20039;-75
2024/02/13 02:21:28;;;;;;;46.05;43.25;;;;;;;9.16;100.00;100077.44;4950419;29;20106;-73
2024/02/13 02:23:55;;;;;;;46.38;43.75;;;;;;;10.04;100.00;100079.25;4941200;29;20062;-74
2024/02/13 02:26:25;;;;;;;43.10;40.40;;;;;;;9.08;100.00;100072.41;4943758;28;20433;-75
2024/02/13 02:28:51;;;;;;;41.95;39.08;;;;;;;8.49;100.00;100068.94;4949663;28;20146;-75
2024/02/13 02:31:20;;;;;;;48.85;45.55;;;;;;;8.66;100.00;100071.16;4944925;28;20520;-75
2024/02/13 02:34:10;;;;;;;47.83;44.45;;;;;;;8.19;100.00;100084.44;4941771;28;20056;-76
2024/02/13 02:36:37;;;;;;;43.97;40.78;;;;;;;8.80;100.00;100077.19;4941540;29;20052;-76
2024/02/13 02:39:04;;;;;;;48.80;45.50;;;;;;;8.21;100.00;100082.41;4938237;29;20145;-75
2024/02/13 02:41:34;;;;;;;46.20;43.00;;;;;;;8.41;100.00;100087.72;4944797;29;20138;-75
2024/02/13 02:44:01;;;;;;;46.45;43.25;;;;;;;8.16;100.00;100087.50;4940737;28;20077;-75
2024/02/13 02:46:28;;;;;;;46.53;43.33;;;;;;;8.26;100.00;100089.75;4945538;28;20449;-75
2024/02/13 02:48:55;;;;;;;47.95;44.47;;;;;;;8.07;100.00;100099.28;4950386;28;20061;-76
2024/02/13 02:51:23;;;;;;;45.70;42.80;;;;;;;8.33;100.00;100095.81;4948609;28;20444;-75
2024/02/13 02:53:50;;;;;;;43.72;40.92;;;;;;;7.81;100.00;100102.78;4936982;29;20059;-75
2024/02/13 02:56:17;;;;;;;47.20;43.47;;;;;;;7.91;100.00;100100.53;4948987;28;20062;-75
2024/02/13 02:58:49;;;;;;;44.78;41.35;;;;;;;7.93;100.00;100113.56;4946720;29;20051;-74
2024/02/13 03:01:24;;;;;;;48.20;44.97;;;;;;;7.94;100.00;100117.81;4946660;29;20066;-75
2024/02/13 03:03:58;;;;;;;43.95;40.85;;;;;;;7.88;100.00;100124.72;4950344;29;20090;-75
2024/02/13 03:06:25;;;;;;;40.58;37.80;;;;;;;8.37;100.00;100126.13;4947378;29;20066;-75
2024/02/13 03:08:52;;;;;;;42.15;39.05;;;;;;;7.78;100.00;100129.63;4948196;29;20045;-76
2024/02/13 03:11:21;;;;;;;49.70;46.30;;;;;;;7.75;100.00;100133.47;4948510;29;20066;-76
2024/02/13 03:13:49;;;;;;;47.15;43.47;;;;;;;7.64;100.00;100127.97;4946605;28;20048;-76
2024/02/13 03:16:19;;;;;;;52.58;48.97;;;;;;;7.75;100.00;100136.13;4931709;29;20063;-75
2024/02/13 03:18:50;;;;;;;52.17;48.67;;;;;;;8.00;100.00;100133.69;4949050;29;20155;-76
2024/02/13 03:21:17;;;;;;;43.63;40.53;;;;;;;7.64;100.00;100126.13;4950127;28;20052;-76
2024/02/13 03:23:45;;;;;;;43.45;40.45;;;;;;;7.96;100.00;100132.47;4948285;28;20050;-77
2024/02/13 03:26:12;;;;;;;40.63;37.92;;;;;;;7.53;100.00;100129.34;4943664;29;20078;-76
2024/02/13 03:28:39;;;;;;;48.63;45.53;;;;;;;7.49;100.00;100125.47;4940696;29;20126;-76
2024/02/13 03:31:07;;;;;;;42.90;39.35;;;;;;;7.54;100.00;100123.06;4950134;29;20055;-75
2024/02/13 03:33:34;;;;;;;45.70;42.60;;;;;;;7.84;100.00;100122.69;4941361;29;20830;-76
2024/02/13 03:36:01;;;;;;;42.08;39.47;;;;;;;7.56;100.00;100119.22;4942642;29;20057;-76
2024/02/13 03:38:28;;;;;;;40.55;37.67;;;;;;;7.35;100.00;100121.97;4949614;29;20061;-75
2024/02/13 03:40:56;;;;;;;43.67;40.67;;;;;;;7.52;100.00;100128.53;4950490;28;20138;-76
2024/02/13 03:43:23;;;;;;;45.45;42.10;;;;;;;7.56;100.00;100131.59;4953084;28;20138;-75
2024/02/13 03:45:49;;;;;;;45.40;42.35;;;;;;;7.46;100.00;100131.97;4949260;28;20087;-74
2024/02/13 03:48:21;;;;;;;41.95;38.95;;;;;;;7.56;100.00;100132.44;4950978;28;20440;-75
2024/02/13 03:50:50;;;;;;;39.33;36.33;;;;;;;7.53;100.00;100135.47;4946932;28;20456;-75
2024/02/13 03:53:16;;;;;;;45.10;41.83;;;;;;;7.42;100.00;100143.16;4950311;29;20042;-75
2024/02/13 03:55:43;;;;;;;40.42;37.38;;;;;;;7.55;100.00;100136.06;4952012;28;20051;-75
2024/02/13 03:58:12;;;;;;;39.00;36.20;;;;;;;7.53;100.00;100142.56;4949056;29;20078;-76
2024/02/13 04:00:40;;;;;;;39.33;36.63;;;;;;;7.64;100.00;100136.69;4942521;28;20103;-76
2024/02/13 04:03:07;;;;;;;37.30;34.47;;;;;;;7.79;100.00;100132.03;4943483;29;20172;-75
2024/02/13 04:05:38;;;;;;;40.15;37.25;;;;;;;7.66;100.00;100141.78;4945514;28;20050;-75
2024/02/13 04:08:06;;;;;;;38.60;36.00;;;;;;;7.23;100.00;100137.63;4939407;29;20047;-75
2024/02/13 04:10:33;;;;;;;37.40;34.63;;;;;;;7.23;100.00;100144.69;4948380;29;20055;-75
2024/02/13 04:12:59;;;;;;;34.85;32.25;;;;;;;7.40;100.00;100151.28;4951148;29;20497;-76
2024/02/13 04:15:27;;;;;;;40.20;37.20;;;;;;;7.20;100.00;100160.94;4933918;29;20051;-75
2024/02/13 04:17:53;;;;;;;41.40;38.35;;;;;;;7.18;100.00;100166.44;4934237;29;20056;-75
2024/02/13 04:20:24;;;;;;;43.10;39.63;;;;;;;7.15;100.00;100156.28;4937449;29;20062;-74
2024/02/13 04:22:53;;;;;;;47.00;43.60;;;;;;;7.14;100.00;100167.00;4953463;28;20051;-75
2024/02/13 04:25:26;;;;;;;41.75;38.55;;;;;;;7.17;100.00;100172.75;4951769;28;20217;-75
2024/02/13 04:27:53;;;;;;;36.72;33.92;;;;;;;7.20;100.00;100166.22;4951070;29;20055;-75
2024/02/13 04:30:20;;;;;;;37.67;34.88;;;;;;;7.23;100.00;100176.41;4947928;28;20166;-75
2024/02/13 04:32:53;;;;;;;42.58;39.58;;;;;;;7.67;100.00;100181.22;4948649;29;20047;-74
2024/02/13 04:35:20;;;;;;;41.33;38.40;;;;;;;7.26;100.00;100168.91;4948992;29;20059;-74
2024/02/13 04:37:47;;;;;;;42.28;39.20;;;;;;;7.34;100.00;100174.00;4952088;28;20054;-76
2024/02/13 04:40:38;;;;;;;39.92;37.03;;;;;;;7.26;100.00;100176.00;4952049;29;20051;-76
2024/02/13 04:43:13;;;;;;;67.13;63.05;;;;;;;7.23;100.00;100171.13;4875888;29;20057;-75
2024/02/13 04:45:39;;;;;;;70.43;66.07;;;;;;;7.19;100.00;100167.25;4945752;29;20047;-74
2024/02/13 04:48:11;;;;;;;63.25;59.35;;;;;;;7.19;100.00;100164.59;4943750;29;20062;-74
2024/02/13 04:50:38;;;;;;;68.72;64.63;;;;;;;7.26;100.00;100176.84;4947837;29;20078;-75
2024/02/13 04:53:05;;;;;;;79.13;74.22;;;;;;;7.25;100.00;100172.56;4946518;28;20739;-75
2024/02/13 04:55:39;;;;;;;54.78;51.22;;;;;;;7.18;100.00;100174.38;4951299;29;20090;-75
2024/02/13 04:58:07;;;;;;;48.25;45.05;;;;;;;7.27;100.00;100180.28;4936177;29;20122;-76
2024/02/13 05:00:36;;;;;;;52.08;48.85;;;;;;;7.18;100.00;100179.66;4939781;28;20433;-75
2024/02/13 05:03:16;;;;;;;54.08;50.58;;;;;;;7.06;100.00;100189.13;4950598;29;20106;-76
2024/02/13 05:08:29;;;;;;;56.60;52.20;;;;;;;7.14;100.00;100191.63;4946945;29;20761;-73
2024/02/13 05:10:57;;;;;;;35.72;32.72;;;;;;;7.08;100.00;100189.75;4949922;29;20086;-74
2024/02/13 05:13:31;;;;;;;34.30;31.50;;;;;;;6.95;100.00;100198.41;4942541;29;20048;-75
2024/02/13 05:15:58;;;;;;;32.15;29.75;;;;;;;7.00;100.00;100197.84;4949604;29;20048;-75
2024/02/13 05:18:26;;;;;;;30.50;28.00;;;;;;;7.00;100.00;100193.38;4947741;29;20105;-75
2024/02/13 05:20:53;;;;;;;36.22;33.67;;;;;;;6.97;100.00;100192.94;4950788;29;20044;-74
2024/02/13 05:23:20;;;;;;;32.97;30.67;;;;;;;6.99;100.00;100193.56;4951077;28;21580;-75
2024/02/13 05:25:48;;;;;;;34.50;32.10;;;;;;;7.04;100.00;100193.78;4950219;28;20059;-75
2024/02/13 05:28:20;;;;;;;34.47;31.98;;;;;;;6.91;100.00;100196.38;4948762;29;20058;-77
2024/02/13 05:30:53;;;;;;;36.58;33.97;;;;;;;6.95;100.00;100195.78;4944706;28;20051;-77
2024/02/13 05:33:20;;;;;;;31.58;29.27;;;;;;;7.13;100.00;100194.44;4939427;28;20445;-76
2024/02/13 05:35:47;;;;;;;29.77;27.17;;;;;;;7.03;100.00;100200.09;4939894;29;20502;-77
2024/02/13 05:38:15;;;;;;;39.33;36.83;;;;;;;8.20;100.00;100199.84;4947599;29;20055;-74
2024/02/13 05:40:50;;;;;;;34.13;31.95;;;;;;;7.16;100.00;100196.69;4943991;28;20054;-74
2024/02/13 05:43:19;;;;;;;33.85;31.65;;;;;;;7.06;100.00;100202.34;4948552;29;20057;-75
2024/02/13 05:45:48;;;;;;;36.97;34.38;;;;;;;7.43;100.00;100203.72;4933602;29;20055;-76
2024/02/13 05:48:18;;;;;;;36.83;35.00;;;;;;;7.08;100.00;100195.03;4936014;29;20055;-74
2024/02/13 05:50:45;;;;;;;31.67;29.88;;;;;;;7.11;100.00;100194.66;4935192;29;20054;-75
2024/02/13 05:53:12;;;;;;;29.33;27.42;;;;;;;7.06;100.00;100200.50;4947268;29;20096;-75
2024/02/13 05:55:40;;;;;;;29.95;27.95;;;;;;;7.15;100.00;100203.00;4949192;29;20075;-75
2024/02/13 05:58:07;;;;;;;27.30;25.40;;;;;;;7.20;100.00;100198.75;4946840;29;20484;-75
2024/02/13 06:00:38;;;;;;;31.17;29.08;;;;;;;7.14;100.00;100190.78;4940667;28;20111;-75
2024/02/13 06:03:08;;;;;;;31.85;29.85;;;;;;;7.18;100.00;100198.13;4932233;29;20047;-75
2024/02/13 06:05:36;;;;;;;32.08;30.08;;;;;;;7.18;100.00;100200.78;4946073;28;20476;-75
2024/02/13 06:08:09;;;;;;;30.88;28.88;;;;;;;7.35;100.00;100198.59;4945903;28;20146;-75
2024/02/13 06:10:41;;;;;;;30.90;28.98;;;;;;;7.72;100.00;100197.31;4949854;29;20083;-75
2024/02/13 06:13:08;;;;;;;29.45;27.55;;;;;;;7.24;100.00;100192.06;4948264;28;20059;-75
2024/02/13 06:15:37;;;;;;;31.30;29.40;;;;;;;7.84;100.00;100199.34;4949820;29;20051;-75
2024/02/13 06:18:05;;;;;;;29.83;28.02;;;;;;;7.53;100.00;100198.91;4943108;28;20066;-75
2024/02/13 06:20:32;;;;;;;31.35;29.52;;;;;;;7.48;100.00;100198.66;4932101;29;20077;-76
2024/02/13 06:23:00;;;;;;;32.63;30.73;;;;;;;7.69;100.00;100194.25;4945995;29;20070;-76
2024/02/13 06:25:27;;;;;;;31.33;29.42;;;;;;;7.49;100.00;100191.53;4947132;29;20066;-76
2024/02/13 06:27:54;;;;;;;35.20;33.10;;;;;;;7.80;100.00;100197.09;4950262;29;20070;-76
2024/02/13 06:30:31;;;;;;;30.02;28.23;;;;;;;7.86;100.00;100199.97;4950174;29;20066;-75
2024/02/13 06:33:01;;;;;;;32.42;30.52;;;;;;;7.98;100.00;100199.19;4949847;29;20043;-75
2024/02/13 06:35:30;;;;;;;31.58;29.58;;;;;;;8.10;100.00;100193.31;4950297;29;20086;-75
2024/02/13 06:37:59;;;;;;;30.52;28.73;;;;;;;8.77;100.00;100202.06;4950321;29;20087;-75
2024/02/13 06:40:26;;;;;;;30.60;28.70;;;;;;;8.20;100.00;100197.19;4942370;28;20069;-75
2024/02/13 06:43:05;;;;;;;31.70;29.70;;;;;;;8.55;100.00;100199.66;4945111;29;20055;-74
2024/02/13 06:45:33;;;;;;;30.15;28.40;;;;;;;8.84;100.00;100190.44;4947104;29;20498;-76
2024/02/13 06:48:07;;;;;;;29.60;27.70;;;;;;;8.40;100.00;100191.09;4943380;28;20055;-76
2024/02/13 06:50:33;;;;;;;31.58;29.25;;;;;;;8.35;100.00;100201.44;4944804;29;20458;-75
2024/02/13 06:53:00;;;;;;;31.20;29.30;;;;;;;8.81;100.00;100195.34;4945975;29;20059;-75
2024/02/13 06:55:30;;;;;;;31.38;29.48;;;;;;;8.49;100.00;100195.97;4938523;29;20051;-75
2024/02/13 06:57:57;;;;;;;30.35;28.45;;;;;;;8.67;100.00;100199.84;4947687;29;20134;-75
2024/02/13 07:00:31;;;;;;;31.63;29.52;;;;;;;8.77;100.00;100196.75;4945427;29;20055;-75
2024/02/13 07:02:59;;;;;;;32.42;30.52;;;;;;;8.99;100.00;100192.06;4937595;29;20123;-75
2024/02/13 07:05:29;;;;;;;29.05;27.25;;;;;;;8.64;100.00;100200.25;4937763;29;20138;-74
2024/02/13 07:07:57;;;;;;;30.75;28.95;;;;;;;8.79;100.00;100200.84;4946048;29;20058;-76
2024/02/13 07:10:27;;;;;;;31.83;29.83;;;;;;;8.73;100.00;100196.38;4940043;28;20052;-75
2024/02/13 07:12:55;;;;;;;29.17;27.30;;;;;;;8.78;100.00;100193.13;4944885;29;20052;-75
2024/02/13 07:15:22;;;;;;;28.85;27.15;;;;;;;8.81;100.00;100196.16;4949344;28;20047;-75
2024/02/13 07:17:51;;;;;;;30.45;28.55;;;;;;;8.68;100.00;100206.75;4952959;28;20053;-74
2024/02/13 07:20:20;;;;;;;28.80;26.98;;;;;;;8.68;100.00;100201.47;4948899;28;20439;-75
2024/02/13 07:22:50;;;;;;;28.92;27.13;;;;;;;8.86;100.00;100195.53;4953103;28;20087;-75
2024/02/13 07:25:17;;;;;;;26.50;24.90;;;;;;;8.61;100.00;100193.53;4954053;28;20394;-75
2024/02/13 07:27:44;;;;;;;28.10;26.40;;;;;;;8.85;100.00;100201.84;4949551;29;20059;-75
2024/02/13 07:30:15;;;;;;;27.00;25.40;;;;;;;8.71;100.00;100193.94;4938903;28;20131;-76
2024/02/13 07:32:44;;;;;;;29.23;27.52;;;;;;;9.08;100.00;100188.97;4943267;29;20057;-75
2024/02/13 07:35:11;;;;;;;26.08;24.58;;;;;;;8.93;100.00;100201.63;4953015;29;20066;-75
2024/02/13 07:37:42;;;;;;;26.23;24.70;;;;;;;9.14;100.00;100203.22;4949016;28;20051;-76
2024/02/13 07:40:15;;;;;;;26.00;24.30;;;;;;;9.38;100.00;100196.41;4953028;29;20055;-75
2024/02/13 07:42:43;;;;;;;25.73;24.02;;;;;;;9.44;100.00;100203.50;4950436;28;20047;-74
2024/02/13 07:45:10;;;;;;;27.60;25.90;;;;;;;9.32;100.00;100205.16;4949301;29;20066;-74
2024/02/13 07:47:39;;;;;;;26.65;25.05;;;;;;;9.47;100.00;100199.59;4946733;28;20051;-75
2024/02/13 07:50:09;;;;;;;26.73;25.02;;;;;;;9.60;100.00;100203.00;4948124;29;20059;-74
2024/02/13 07:52:39;;;;;;;27.25;25.60;;;;;;;9.81;100.00;100199.22;4942818;28;20054;-75
2024/02/13 07:55:10;;;;;;;28.55;26.75;;;;;;;10.43;100.00;100202.06;4952087;29;20134;-76
2024/02/13 07:57:37;;;;;;;25.13;23.52;;;;;;;10.28;100.00;100212.19;4934003;29;20434;-75
2024/02/13 08:00:06;;;;;;;27.63;25.92;;;;;;;10.84;100.00;100206.00;4941754;29;20056;-75
2024/02/13 08:02:33;;;;;;;27.70;26.00;;;;;;;10.96;100.00;100204.22;4944899;29;20066;-76
2024/02/13 08:05:00;;;;;;;24.48;23.08;;;;;;;11.55;100.00;100201.09;4952629;28;20447;-75
2024/02/13 08:07:27;;;;;;;24.17;22.58;;;;;;;10.44;100.00;100195.75;4943747;28;20047;-75
2024/02/13 08:09:55;;;;;;;24.75;23.15;;;;;;;10.90;100.00;100204.31;4944865;29;20071;-75
2024/02/13 08:12:24;;;;;;;28.00;26.30;;;;;;;10.72;100.00;100207.75;4950738;29;20541;-75
2024/02/13 08:14:54;;;;;;;26.63;24.92;;;;;;;11.13;100.00;100206.28;4951593;29;20098;-75
2024/02/13 08:17:23;;;;;;;23.73;22.23;;;;;;;10.63;100.00;100217.03;4952050;28;20111;-76
2024/02/13 08:19:52;;;;;;;24.90;23.20;;;;;;;10.97;100.00;100205.84;4951002;28;20055;-75
2024/02/13 08:22:22;;;;;;;21.90;20.60;;;;;;;11.38;100.00;100209.69;4946248;28;20083;-75
2024/02/13 08:24:51;;;;;;;22.45;21.05;;;;;;;11.04;100.00;100220.91;4947506;29;20077;-75
2024/02/13 08:27:18;;;;;;;23.27;21.83;;;;;;;12.33;100.00;100219.63;4947552;28;20077;-76
2024/02/13 08:29:49;;;;;;;24.60;23.10;;;;;;;11.54;100.00;100215.44;4945864;29;20055;-76
2024/02/13 08:32:19;;;;;;;23.30;21.90;;;;;;;11.59;100.00;100216.38;4943129;28;20510;-72
2024/02/13 08:34:49;;;;;;;21.48;20.05;;;;;;;11.08;100.00;100214.13;4938919;29;20107;-75
2024/02/13 08:37:16;;;;;;;22.00;20.48;;;;;;;11.48;100.00;100221.66;4946979;28;20074;-75
2024/02/13 08:39:43;;;;;;;21.85;20.45;;;;;;;11.08;100.00;100224.75;4947442;29;20752;-74
2024/02/13 08:42:10;;;;;;;22.52;21.10;;;;;;;10.92;100.00;100228.78;4948761;28;20066;-76
2024/02/13 08:44:45;;;;;;;22.38;20.88;;;;;;;10.75;100.00;100221.41;4950038;28;20055;-76
2024/02/13 08:47:16;;;;;;;21.60;20.10;;;;;;;10.76;100.00;100223.00;4947654;28;20055;-76
2024/02/13 08:49:44;;;;;;;21.70;20.10;;;;;;;10.84;100.00;100221.94;4943575;29;20150;-75
2024/02/13 08:52:14;;;;;;;20.23;18.73;;;;;;;10.96;100.00;100211.41;4950639;28;20134;-76
2024/02/13 08:54:41;;;;;;;21.27;19.77;;;;;;;11.51;100.00;100213.22;4946264;28;20044;-76
2024/02/13 08:57:08;;;;;;;20.77;19.27;;;;;;;11.44;100.00;100222.09;4951219;28;20058;-76
2024/02/13 08:59:41;;;;;;;22.73;21.20;;;;;;;11.45;100.00;100226.38;4951025;28;20067;-76
2024/02/13 09:02:19;;;;;;;23.88;22.45;;;;;;;11.05;100.00;100214.56;4934817;28;20054;-75
2024/02/13 09:05:12;;;;;;;22.02;20.63;;;;;;;10.83;100.00;100219.47;4951683;29;20128;-75
2024/02/13 09:07:40;;;;;;;24.40;22.75;;;;;;;10.74;100.00;100219.78;4938057;28;20584;-75
2024/02/13 09:10:12;;;;;;;22.58;21.17;;;;;;;10.76;100.00;100227.53;4951304;28;20066;-74
2024/02/13 09:12:39;;;;;;;20.83;19.42;;;;;;;10.64;100.00;100232.72;4951900;28;20063;-75
2024/02/13 09:15:11;;;;;;;22.20;20.70;;;;;;;10.58;100.00;100222.97;4949766;29;20324;-76
2024/02/13 09:17:41;;;;;;;22.33;20.92;;;;;;;11.06;100.00;100224.16;4947300;29;20047;-75
2024/02/13 09:20:13;;;;;;;22.77;21.38;;;;;;;10.52;100.00;100235.28;4954372;28;20061;-76
2024/02/13 09:22:43;;;;;;;20.65;19.35;;;;;;;11.01;100.00;100219.50;4943599;29;20107;-74
2024/02/13 09:25:12;;;;;;;22.95;21.45;;;;;;;11.39;100.00;100221.94;4946213;29;20150;-75
2024/02/13 09:27:54;;;;;;;23.20;21.67;;;;;;;11.17;100.00;100226.09;4950951;28;20054;-74
2024/02/13 09:30:21;;;;;;;22.27;20.77;;;;;;;10.86;100.00;100235.81;4945918;29;20063;-76
2024/02/13 09:32:49;;;;;;;24.35;22.73;;;;;;;10.96;100.00;100222.84;4944804;29;20738;-75
2024/02/13 09:35:38;;;;;;;24.42;22.92;;;;;;;10.68;100.00;100222.47;4940923;29;20047;-75
2024/02/13 09:38:06;;;;;;;24.42;22.83;;;;;;;11.09;100.00;100229.84;4948725;29;20047;-75
2024/02/13 09:40:34;;;;;;;20.67;19.38;;;;;;;11.36;100.00;100217.06;4951301;28;20488;-74
2024/02/13 09:43:14;;;;;;;24.02;22.55;;;;;;;11.17;100.00;100220.78;4949563;28;20642;-74
2024/02/13 09:45:42;;;;;;;23.23;21.83;;;;;;;11.16;100.00;100222.59;4947895;29;20062;-75
2024/02/13 09:48:20;;;;;;;21.00;19.70;;;;;;;11.18;100.00;100219.75;4944584;29;20070;-75
2024/02/13 09:50:50;;;;;;;20.52;19.13;;;;;;;10.84;100.00;100226.44;4936111;29;20103;-75
2024/02/13 09:53:24;;;;;;;23.45;21.75;;;;;;;11.19;100.00;100218.69;4934117;29;20523;-75
2024/02/13 09:55:54;;;;;;;23.90;22.30;;;;;;;11.47;100.00;100212.84;4946840;28;20059;-76
2024/02/13 09:58:22;;;;;;;24.70;23.10;;;;;;;12.14;100.00;100207.44;4949472;29;20831;-75
2024/02/13 10:00:49;;;;;;;24.15;22.65;;;;;;;12.21;100.00;100221.47;4944742;29;20444;-75
2024/02/13 10:03:17;;;;;;;22.85;21.35;;;;;;;12.41;100.00;100213.19;4950023;29;20043;-75
2024/02/13 10:05:44;;;;;;;29.08;26.85;;;;;;;12.34;100.00;100209.78;4947666;29;20043;-76
2024/02/13 10:08:12;;;;;;;24.90;23.17;;;;;;;12.20;100.00;100208.41;4949613;28;20059;-74
2024/02/13 10:10:39;;;;;;;25.50;23.85;;;;;;;12.48;100.00;100207.72;4949765;28;20055;-75
2024/02/13 10:13:06;;;;;;;22.73;21.13;;;;;;;12.64;100.00;100199.03;4951029;28;20611;-75
2024/02/13 10:15:42;;;;;;;23.08;21.33;;;;;;;11.91;100.00;100198.34;4949086;29;20059;-75
2024/02/13 10:18:15;;;;;;;25.42;23.83;;;;;;;11.86;100.00;100205.38;4938868;29;20055;-76
2024/02/13 10:20:54;;;;;;;25.88;24.27;;;;;;;11.95;100.00;100198.72;4947207;29;20069;-75
2024/02/13 10:23:24;;;;;;;23.13;21.40;;;;;;;12.25;100.00;100200.50;4947133;28;20043;-76
2024/02/13 10:25:52;;;;;;;24.00;22.40;;;;;;;11.72;100.00;100209.25;4947067;28;20048;-75
2024/02/13 10:28:19;;;;;;;22.98;21.48;;;;;;;11.65;100.00;100199.53;4946633;29;20082;-75
2024/02/13 10:30:51;;;;;;;29.48;27.48;;;;;;;11.50;100.00;100200.94;4950383;29;20055;-76
2024/02/13 10:33:19;;;;;;;35.65;33.45;;;;;;;11.57;100.00;100199.03;4946376;29;20043;-74
2024/02/13 10:35:58;;;;;;;33.38;31.27;;;;;;;11.82;100.00;100204.19;4947639;28;20055;-75
2024/02/13 10:38:30;;;;;;;30.58;28.58;;;;;;;11.91;100.00;100197.56;4944757;28;20448;-76
2024/02/13 10:41:00;;;;;;;26.10;24.40;;;;;;;11.76;100.00;100202.44;4945898;28;20051;-74
2024/02/13 10:43:27;;;;;;;24.92;23.23;;;;;;;11.81;100.00;100199.94;4945404;29;20050;-75
2024/02/13 10:45:58;;;;;;;25.75;24.15;;;;;;;12.03;100.00;100197.59;4943750;29;20053;-75
2024/02/13 10:48:37;;;;;;;25.90;24.30;;;;;;;12.14;100.00;100197.63;4937451;29;20047;-76
2024/02/13 10:51:09;;;;;;;27.88;26.17;;;;;;;11.86;100.00;100200.91;4938795;29;20059;-75
2024/02/13 10:53:37;;;;;;;28.17;26.38;;;;;;;11.96;100.00;100192.38;4935662;28;20089;-75
2024/02/13 10:56:05;;;;;;;29.88;28.17;;;;;;;11.68;100.00;100190.28;4945179;29;20043;-76
2024/02/13 10:58:33;;;;;;;28.23;26.52;;;;;;;11.39;100.00;100189.22;4939979;29;20146;-75
2024/02/13 11:01:03;;;;;;;26.27;24.65;;;;;;;11.83;100.00;100196.00;4940504;29;20067;-75
2024/02/13 11:03:30;;;;;;;27.02;25.52;;;;;;;12.08;100.00;100195.06;4933102;28;20048;-76
2024/02/13 11:05:58;;;;;;;24.77;23.38;;;;;;;11.66;100.00;100197.66;4950419;28;20058;-75
2024/02/13 11:08:28;;;;;;;23.30;21.90;;;;;;;11.34;100.00;100195.19;4937886;28;20417;-75
2024/02/13 11:10:55;;;;;;;31.85;30.05;;;;;;;11.37;100.00;100194.75;4949304;29;20762;-76
2024/02/13 11:13:25;;;;;;;32.88;30.95;;;;;;;11.42;100.00;100192.25;4941625;28;20070;-75
2024/02/13 11:15:57;;;;;;;27.42;25.73;;;;;;;11.58;100.00;100187.34;4931047;29;20055;-75
2024/02/13 11:18:25;;;;;;;27.52;25.90;;;;;;;11.89;100.00;100197.78;4931368;29;20056;-77
2024/02/13 11:20:53;;;;;;;28.88;27.27;;;;;;;11.79;100.00;100186.84;4945497;29;20058;-76